Recep Reis 1 — TCBZ7 — position and weather

sailwx.info

Track history (hours):
 
Tides and Currents Weather Stations Pressure Air Temp Water Temp Dewpoint Dewpoint Depression Visibility Wind Speed Wind Dir Waves Ship Positions

Recep Reis 1

Last reported at 2018-Jun-24 22:36 UTC. Time now 2018-Jun-25 11:44 UTC.
Position N 46°17' E 030°44'.

Length 75 m; draft 5 m.

Type: Cargo ship. MMSI: 271002215.

Date/timePositionNaut miles runAvg speedWind from/ knotsBaromVisibWave heightAir tempDewpointWater temp
2018-Jun-24 22:36N 46°17' E 030°44'1 8.6
2018-Jun-24 22:30N 46°18' E 030°43'3 0.2
2018-Jun-24 08:38N 46°19' E 030°40'1 2.7
2018-Jun-24 08:22N 46°19' E 030°41'3 3.7
2018-Jun-24 07:39N 46°17' E 030°43'2 6.5
2018-Jun-24 07:23N 46°15' E 030°42'0 0.1
2018-Jun-24 06:32N 46°15' E 030°43'0 0.1
2018-Jun-24 06:29N 46°15' E 030°43'0 0.0
2018-Jun-24 05:39N 46°15' E 030°43'0 0.1
2018-Jun-24 05:29N 46°15' E 030°43'0 0.0
2018-Jun-24 04:38N 46°15' E 030°43'0 0.0
2018-Jun-24 04:30N 46°15' E 030°43'0 0.0
2018-Jun-24 03:38N 46°15' E 030°43'0 0.0
2018-Jun-24 03:29N 46°15' E 030°43'0 0.0
2018-Jun-24 02:38N 46°15' E 030°43'0 0.0
2018-Jun-24 02:29N 46°15' E 030°43'0 0.0
2018-Jun-24 01:38N 46°15' E 030°43'0 0.1
2018-Jun-24 01:31N 46°15' E 030°43'0 0.0
2018-Jun-24 00:39N 46°15' E 030°43'0 0.0
2018-Jun-24 00:30N 46°15' E 030°43'0 0.0
2018-Jun-23 23:39N 46°15' E 030°43'0 0.1
2018-Jun-23 23:30N 46°15' E 030°43'0 0.0
2018-Jun-23 22:39N 46°15' E 030°43'0 0.1
2018-Jun-23 22:30N 46°15' E 030°43'0 0.0
2018-Jun-23 21:39N 46°15' E 030°43'0 0.0
2018-Jun-23 21:31N 46°15' E 030°43'0 0.0
2018-Jun-23 20:39N 46°15' E 030°43'0 0.1
2018-Jun-23 20:30N 46°15' E 030°43'0 0.0
2018-Jun-23 19:39N 46°15' E 030°43'0 0.1
2018-Jun-23 19:30N 46°15' E 030°43'0 0.0
2018-Jun-23 18:39N 46°15' E 030°43'0 0.0
2018-Jun-23 18:30N 46°15' E 030°43'0 0.0
2018-Jun-23 17:39N 46°15' E 030°43'0 0.2
2018-Jun-23 17:30N 46°15' E 030°43'0 0.0
2018-Jun-23 16:39N 46°15' E 030°43'0 0.1
2018-Jun-23 16:31N 46°15' E 030°43'5 6.1
2018-Jun-23 15:39N 46°20' E 030°46'1 9.4
2018-Jun-23 15:30N 46°21' E 030°47'5 9.4
2018-Jun-23 15:00N 46°26' E 030°48'4 8.5
2018-Jun-23 14:30N 46°30' E 030°46'1 1.9
2018-Jun-23 14:00N 46°29' E 030°45'0 0.0
2018-Jun-23 13:30N 46°29' E 030°45'0 0.0
2018-Jun-23 12:55N 46°29' E 030°45'0 0.0
2018-Jun-23 12:28N 46°29' E 030°45'0 0.0
2018-Jun-23 11:55N 46°29' E 030°45'0 0.0
2018-Jun-23 11:25N 46°29' E 030°45'0 0.0
2018-Jun-23 10:46N 46°29' E 030°45'0 0.0
2018-Jun-23 10:13N 46°29' E 030°45'0 0.0
2018-Jun-23 09:37N 46°29' E 030°45'0 0.1
2018-Jun-23 09:25N 46°29' E 030°45'0 0.0
2018-Jun-23 08:58N 46°29' E 030°45'0 0.0
2018-Jun-23 08:28N 46°29' E 030°45'0 0.0
2018-Jun-23 07:58N 46°29' E 030°45'0 0.0
2018-Jun-23 07:28N 46°29' E 030°45'0 0.0
2018-Jun-23 06:58N 46°29' E 030°45'0 0.0
2018-Jun-23 06:28N 46°29' E 030°45'0 0.0
2018-Jun-23 05:58N 46°29' E 030°45'0 0.0
2018-Jun-23 05:25N 46°29' E 030°45'0 0.0
2018-Jun-23 04:52N 46°29' E 030°45'0 0.1
2018-Jun-23 04:28N 46°29' E 030°45'0 0.0
2018-Jun-23 03:52N 46°29' E 030°45'0 0.0
2018-Jun-23 03:28N 46°29' E 030°45'0 0.0
2018-Jun-23 02:58N 46°29' E 030°45'0 0.0
2018-Jun-23 02:28N 46°29' E 030°45'0 0.0
2018-Jun-23 01:55N 46°29' E 030°45'0 0.0
2018-Jun-23 01:28N 46°29' E 030°45'0 0.0
2018-Jun-23 01:00N 46°29' E 030°45'0 0.0
2018-Jun-23 00:25N 46°29' E 030°45'0 0.0
2018-Jun-23 00:00N 46°29' E 030°45'0 0.0
2018-Jun-22 23:27N 46°29' E 030°45'0 0.0
2018-Jun-22 22:57N 46°29' E 030°45'0 0.0
2018-Jun-22 22:30N 46°29' E 030°45'0 0.0
2018-Jun-22 21:57N 46°29' E 030°45'0 0.0
2018-Jun-22 21:30N 46°29' E 030°45'0 0.0
2018-Jun-22 21:00N 46°29' E 030°45'0 0.0
2018-Jun-22 20:30N 46°29' E 030°45'0 0.8
2018-Jun-22 20:00N 46°30' E 030°46'2 4.9
2018-Jun-22 19:30N 46°29' E 030°49'4 7.4
2018-Jun-22 19:00N 46°26' E 030°51'18 8.4
2018-Jun-22 16:52N 46°11' E 031°05'4 8.1
2018-Jun-22 16:23N 46°07' E 031°08'3 8.8
2018-Jun-22 16:00N 46°04' E 031°08'7 8.9
2018-Jun-22 15:10N 45°57' E 031°09'2 8.6
2018-Jun-22 14:56N 45°55' E 031°09'4 8.8
2018-Jun-22 14:30N 45°51' E 031°09'4 8.9
2018-Jun-22 14:00N 45°46' E 031°09'16 8.9
2018-Jun-22 12:15N 45°31' E 031°09'27 8.7
2018-Jun-22 09:09N 45°04' E 031°12'4 8.7
2018-Jun-22 08:43N 45°00' E 031°12'3 8.8
2018-Jun-22 08:21N 44°57' E 031°12'4 9.0
2018-Jun-22 07:57N 44°53' E 031°12'4 9.2
2018-Jun-22 07:29N 44°49' E 031°12'6 9.2
2018-Jun-22 06:51N 44°43' E 031°12'11 9.4
2018-Jun-22 05:41N 44°32' E 031°13'3 9.4
2018-Jun-22 05:24N 44°30' E 031°13'4 9.2
2018-Jun-22 05:01N 44°26' E 031°13'5 9.1
2018-Jun-22 04:28N 44°21' E 031°14'4 9.0
2018-Jun-22 04:00N 44°17' E 031°14'12 9.0
2018-Jun-22 02:39N 44°05' E 031°14'2 9.1
2018-Jun-22 02:28N 44°03' E 031°14'4 9.1
2018-Jun-22 02:00N 43°59' E 031°15'4 8.9
2018-Jun-22 01:30N 43°54' E 031°15'4 8.7
2018-Jun-22 01:00N 43°50' E 031°15'4 8.7
2018-Jun-22 00:30N 43°46' E 031°15'4 8.6
2018-Jun-22 00:00N 43°41' E 031°15'4 8.6
2018-Jun-21 23:30N 43°37' E 031°16'5 8.3
2018-Jun-21 22:50N 43°32' E 031°15'3 8.5
2018-Jun-21 22:29N 43°29' E 031°16'4 8.4
2018-Jun-21 22:00N 43°25' E 031°16'4 8.4
2018-Jun-21 21:30N 43°20' E 031°16'4 8.3
2018-Jun-21 21:00N 43°16' E 031°17'4 8.3
2018-Jun-21 20:30N 43°12' E 031°17'5 8.3
2018-Jun-21 19:54N 43°07' E 031°18'4 8.4
2018-Jun-21 19:26N 43°03' E 031°18'4 8.5
2018-Jun-21 19:00N 42°59' E 031°18'5 8.6
2018-Jun-21 18:26N 42°55' E 031°18'4 8.8
2018-Jun-21 17:59N 42°51' E 031°18'4 9.0
2018-Jun-21 17:30N 42°46' E 031°19'8 9.3
2018-Jun-21 16:41N 42°39' E 031°19'2 9.3
2018-Jun-21 16:30N 42°37' E 031°19'19 8.9
2018-Jun-21 14:19N 42°18' E 031°20'3 8.7
2018-Jun-21 13:56N 42°14' E 031°20'  
2018-Jun-15 23:06N 41°50' E 031°19'1 8.3
2018-Jun-15 23:00N 41°50' E 031°19'5 8.7
2018-Jun-15 22:27N 41°55' E 031°18'4 8.6
2018-Jun-15 22:00N 41°59' E 031°17'4 8.5
2018-Jun-15 21:30N 42°03' E 031°16'4 8.4
2018-Jun-15 21:00N 42°07' E 031°16'4 8.4
2018-Jun-15 20:30N 42°11' E 031°15'14 8.6
2018-Jun-15 18:51N 42°25' E 031°12'5 9.0
2018-Jun-15 18:21N 42°30' E 031°12'68 9.1
2018-Jun-15 10:58N 43°37' E 031°06'4 9.2
2018-Jun-15 10:30N 43°42' E 031°06'13 9.1
2018-Jun-15 09:07N 43°54' E 031°04'1 8.9
2018-Jun-15 09:00N 43°55' E 031°04'5 9.0
2018-Jun-15 08:28N 43°60' E 031°04'34 8.7
2018-Jun-15 04:33N 44°34' E 030°58'3 8.7
2018-Jun-15 04:12N 44°37' E 030°57'2 8.7
2018-Jun-15 04:00N 44°38' E 030°57'4 8.7
2018-Jun-15 03:30N 44°43' E 030°56'4 8.6
2018-Jun-15 03:00N 44°47' E 030°56'4 8.7
2018-Jun-15 02:30N 44°51' E 030°55'4 8.7
2018-Jun-15 02:01N 44°56' E 030°55'10 8.8
2018-Jun-15 00:53N 45°05' E 030°54'3 8.8
2018-Jun-15 00:30N 45°09' E 030°53'5 8.9
2018-Jun-14 23:59N 45°13' E 030°53'  
Track history (hours):
 
Tides and Currents Weather Stations Pressure Air Temp Water Temp Dewpoint Dewpoint Depression Visibility Wind Speed Wind Dir Waves Ship Positions

Recep Reis 1

Last reported at 2018-Jun-24 22:36 UTC. Time now 2018-Jun-25 11:44 UTC.
Position N 46°17' E 030°44'.

Length 75 m; draft 5 m.

Type: Cargo ship. MMSI: 271002215.

Date/timePositionNaut miles runAvg speedWind from/ knotsBaromVisibWave heightAir tempDewpointWater temp
2018-Jun-24 22:36N 46°17' E 030°44'1 8.6
2018-Jun-24 22:30N 46°18' E 030°43'3 0.2
2018-Jun-24 08:38N 46°19' E 030°40'1 2.7
2018-Jun-24 08:22N 46°19' E 030°41'3 3.7
2018-Jun-24 07:39N 46°17' E 030°43'2 6.5
2018-Jun-24 07:23N 46°15' E 030°42'0 0.1
2018-Jun-24 06:32N 46°15' E 030°43'0 0.1
2018-Jun-24 06:29N 46°15' E 030°43'0 0.0
2018-Jun-24 05:39N 46°15' E 030°43'0 0.1
2018-Jun-24 05:29N 46°15' E 030°43'0 0.0
2018-Jun-24 04:38N 46°15' E 030°43'0 0.0
2018-Jun-24 04:30N 46°15' E 030°43'0 0.0
2018-Jun-24 03:38N 46°15' E 030°43'0 0.0
2018-Jun-24 03:29N 46°15' E 030°43'0 0.0
2018-Jun-24 02:38N 46°15' E 030°43'0 0.0
2018-Jun-24 02:29N 46°15' E 030°43'0 0.0
2018-Jun-24 01:38N 46°15' E 030°43'0 0.1
2018-Jun-24 01:31N 46°15' E 030°43'0 0.0
2018-Jun-24 00:39N 46°15' E 030°43'0 0.0
2018-Jun-24 00:30N 46°15' E 030°43'0 0.0
2018-Jun-23 23:39N 46°15' E 030°43'0 0.1
2018-Jun-23 23:30N 46°15' E 030°43'0 0.0
2018-Jun-23 22:39N 46°15' E 030°43'0 0.1
2018-Jun-23 22:30N 46°15' E 030°43'0 0.0
2018-Jun-23 21:39N 46°15' E 030°43'0 0.0
2018-Jun-23 21:31N 46°15' E 030°43'0 0.0
2018-Jun-23 20:39N 46°15' E 030°43'0 0.1
2018-Jun-23 20:30N 46°15' E 030°43'0 0.0
2018-Jun-23 19:39N 46°15' E 030°43'0 0.1
2018-Jun-23 19:30N 46°15' E 030°43'0 0.0
2018-Jun-23 18:39N 46°15' E 030°43'0 0.0
2018-Jun-23 18:30N 46°15' E 030°43'0 0.0
2018-Jun-23 17:39N 46°15' E 030°43'0 0.2
2018-Jun-23 17:30N 46°15' E 030°43'0 0.0
2018-Jun-23 16:39N 46°15' E 030°43'0 0.1
2018-Jun-23 16:31N 46°15' E 030°43'5 6.1
2018-Jun-23 15:39N 46°20' E 030°46'1 9.4
2018-Jun-23 15:30N 46°21' E 030°47'5 9.4
2018-Jun-23 15:00N 46°26' E 030°48'4 8.5
2018-Jun-23 14:30N 46°30' E 030°46'1 1.9
2018-Jun-23 14:00N 46°29' E 030°45'0 0.0
2018-Jun-23 13:30N 46°29' E 030°45'0 0.0
2018-Jun-23 12:55N 46°29' E 030°45'0 0.0
2018-Jun-23 12:28N 46°29' E 030°45'0 0.0
2018-Jun-23 11:55N 46°29' E 030°45'0 0.0
2018-Jun-23 11:25N 46°29' E 030°45'0 0.0
2018-Jun-23 10:46N 46°29' E 030°45'0 0.0
2018-Jun-23 10:13N 46°29' E 030°45'0 0.0
2018-Jun-23 09:37N 46°29' E 030°45'0 0.1
2018-Jun-23 09:25N 46°29' E 030°45'0 0.0
2018-Jun-23 08:58N 46°29' E 030°45'0 0.0
2018-Jun-23 08:28N 46°29' E 030°45'0 0.0
2018-Jun-23 07:58N 46°29' E 030°45'0 0.0
2018-Jun-23 07:28N 46°29' E 030°45'0 0.0
2018-Jun-23 06:58N 46°29' E 030°45'0 0.0
2018-Jun-23 06:28N 46°29' E 030°45'0 0.0
2018-Jun-23 05:58N 46°29' E 030°45'0 0.0
2018-Jun-23 05:25N 46°29' E 030°45'0 0.0
2018-Jun-23 04:52N 46°29' E 030°45'0 0.1
2018-Jun-23 04:28N 46°29' E 030°45'0 0.0
2018-Jun-23 03:52N 46°29' E 030°45'0 0.0
2018-Jun-23 03:28N 46°29' E 030°45'0 0.0
2018-Jun-23 02:58N 46°29' E 030°45'0 0.0
2018-Jun-23 02:28N 46°29' E 030°45'0 0.0
2018-Jun-23 01:55N 46°29' E 030°45'0 0.0
2018-Jun-23 01:28N 46°29' E 030°45'0 0.0
2018-Jun-23 01:00N 46°29' E 030°45'0 0.0
2018-Jun-23 00:25N 46°29' E 030°45'0 0.0
2018-Jun-23 00:00N 46°29' E 030°45'0 0.0
2018-Jun-22 23:27N 46°29' E 030°45'0 0.0
2018-Jun-22 22:57N 46°29' E 030°45'0 0.0
2018-Jun-22 22:30N 46°29' E 030°45'0 0.0
2018-Jun-22 21:57N 46°29' E 030°45'0 0.0
2018-Jun-22 21:30N 46°29' E 030°45'0 0.0
2018-Jun-22 21:00N 46°29' E 030°45'0 0.0
2018-Jun-22 20:30N 46°29' E 030°45'0 0.8
2018-Jun-22 20:00N 46°30' E 030°46'2 4.9
2018-Jun-22 19:30N 46°29' E 030°49'4 7.4
2018-Jun-22 19:00N 46°26' E 030°51'18 8.4
2018-Jun-22 16:52N 46°11' E 031°05'4 8.1
2018-Jun-22 16:23N 46°07' E 031°08'3 8.8
2018-Jun-22 16:00N 46°04' E 031°08'7 8.9
2018-Jun-22 15:10N 45°57' E 031°09'2 8.6
2018-Jun-22 14:56N 45°55' E 031°09'4 8.8
2018-Jun-22 14:30N 45°51' E 031°09'4 8.9
2018-Jun-22 14:00N 45°46' E 031°09'16 8.9
2018-Jun-22 12:15N 45°31' E 031°09'27 8.7
2018-Jun-22 09:09N 45°04' E 031°12'4 8.7
2018-Jun-22 08:43N 45°00' E 031°12'3 8.8
2018-Jun-22 08:21N 44°57' E 031°12'4 9.0
2018-Jun-22 07:57N 44°53' E 031°12'4 9.2
2018-Jun-22 07:29N 44°49' E 031°12'6 9.2
2018-Jun-22 06:51N 44°43' E 031°12'11 9.4
2018-Jun-22 05:41N 44°32' E 031°13'3 9.4
2018-Jun-22 05:24N 44°30' E 031°13'4 9.2
2018-Jun-22 05:01N 44°26' E 031°13'5 9.1
2018-Jun-22 04:28N 44°21' E 031°14'4 9.0
2018-Jun-22 04:00N 44°17' E 031°14'12 9.0
2018-Jun-22 02:39N 44°05' E 031°14'2 9.1
2018-Jun-22 02:28N 44°03' E 031°14'4 9.1
2018-Jun-22 02:00N 43°59' E 031°15'4 8.9
2018-Jun-22 01:30N 43°54' E 031°15'4 8.7
2018-Jun-22 01:00N 43°50' E 031°15'4 8.7
2018-Jun-22 00:30N 43°46' E 031°15'4 8.6
2018-Jun-22 00:00N 43°41' E 031°15'4 8.6
2018-Jun-21 23:30N 43°37' E 031°16'5 8.3
2018-Jun-21 22:50N 43°32' E 031°15'3 8.5
2018-Jun-21 22:29N 43°29' E 031°16'4 8.4
2018-Jun-21 22:00N 43°25' E 031°16'4 8.4
2018-Jun-21 21:30N 43°20' E 031°16'4 8.3
2018-Jun-21 21:00N 43°16' E 031°17'4 8.3
2018-Jun-21 20:30N 43°12' E 031°17'5 8.3
2018-Jun-21 19:54N 43°07' E 031°18'4 8.4
2018-Jun-21 19:26N 43°03' E 031°18'4 8.5
2018-Jun-21 19:00N 42°59' E 031°18'5 8.6
2018-Jun-21 18:26N 42°55' E 031°18'4 8.8
2018-Jun-21 17:59N 42°51' E 031°18'4 9.0
2018-Jun-21 17:30N 42°46' E 031°19'8 9.3
2018-Jun-21 16:41N 42°39' E 031°19'2 9.3
2018-Jun-21 16:30N 42°37' E 031°19'19 8.9
2018-Jun-21 14:19N 42°18' E 031°20'3 8.7
2018-Jun-21 13:56N 42°14' E 031°20'  
2018-Jun-15 23:06N 41°50' E 031°19'1 8.3
2018-Jun-15 23:00N 41°50' E 031°19'5 8.7
2018-Jun-15 22:27N 41°55' E 031°18'4 8.6
2018-Jun-15 22:00N 41°59' E 031°17'4 8.5
2018-Jun-15 21:30N 42°03' E 031°16'4 8.4
2018-Jun-15 21:00N 42°07' E 031°16'4 8.4
2018-Jun-15 20:30N 42°11' E 031°15'14 8.6
2018-Jun-15 18:51N 42°25' E 031°12'5 9.0
2018-Jun-15 18:21N 42°30' E 031°12'68 9.1
2018-Jun-15 10:58N 43°37' E 031°06'4 9.2
2018-Jun-15 10:30N 43°42' E 031°06'13 9.1
2018-Jun-15 09:07N 43°54' E 031°04'1 8.9
2018-Jun-15 09:00N 43°55' E 031°04'5 9.0
2018-Jun-15 08:28N 43°60' E 031°04'34 8.7
2018-Jun-15 04:33N 44°34' E 030°58'3 8.7
2018-Jun-15 04:12N 44°37' E 030°57'2 8.7
2018-Jun-15 04:00N 44°38' E 030°57'4 8.7
2018-Jun-15 03:30N 44°43' E 030°56'4 8.6
2018-Jun-15 03:00N 44°47' E 030°56'4 8.7
2018-Jun-15 02:30N 44°51' E 030°55'4 8.7
2018-Jun-15 02:01N 44°56' E 030°55'10 8.8
2018-Jun-15 00:53N 45°05' E 030°54'3 8.8
2018-Jun-15 00:30N 45°09' E 030°53'5 8.9
2018-Jun-14 23:59N 45°13' E 030°53'  

Dump ship's entire track history